KPWM/PWM METAR and TAF weather

Enter ICAO airport designator
Station Type Date Time Source
KPWM METAR 2021/05/14 06:51 UTC NOAA

KPWM 140651Z AUTO 35003KT 10SM CLR 07/03 A3010 RMK AO2 SLP192 T00720028


Station Type Date Time Source
KPWM Decoded METAR 2021/05/14 06:51 UTC NOAA

PORTLAND INTERNATIONAL JETPORT, ME, United States (KPWM) 43-39N 70-18W 15M
May 14, 2021 - 02:51 AM EDT / 2021.05.14 0651 UTC
Wind: from the N (350 degrees) at 3 MPH (3 KT):0
Visibility: 10 mile(s):0
Sky conditions: clear
Temperature: 45.0 F (7.2 C)
Dew Point: 37.0 F (2.8 C)
Relative Humidity: 73%
Pressure (altimeter): 30.1 in. Hg (1019 hPa)
ob: KPWM 140651Z AUTO 35003KT 10SM CLR 07/03 A3010 RMK AO2 SLP192 T00720028
cycle: 7

Station Type Date Time Source
KPWM TAF 2021/05/14 06:28 UTC NOAA

TAF KPWM 140526Z 1406/1506 VRB03KT P6SM SKC
FM141400 27009G16KT P6SM SCT100
FM150000 25004KT P6SM OVC100

Example: see airport list